Kobuk Valley National Park, AK

6:26 AM AKDT op 25 april 2015 (GMT -0800)
Selawik | | Change Station
CLOSE
Current Station
Luchthaven
Location: Selawik,
Geometrische hoogte: 26 ft
Nabije weerstations

Hoogte 26 ft 66.60 °N, 159.99 °W | Updated 10 minutes ago

Clear
Helder
23 °F
Voelt als 16 °F
N
6
Wind Variabel Wind van ONO

Vandaag
Hoog -- | Laag -- °F
--% Kans op neerslag
Gisteren
Hoog -- | Laag -- °F
Precip. -- inches
6:09 AM 11:11 PM
Wassende halvemaan, 46% visible
Druk 29.85 inches
Zicht 10.0 mijlen
Wolken Helder
Gevoelstemperatuur 16 °F
Dauwpunt 19 °F
Vochtigheid 86%
Neerslag 0.00 inches
Dikte sneeuw Niet beschikbaar.
UV 0 van de 12
Pollen Niet beschikbaar.
Luchtkwaliteit Niet beschikbaar.
Flu Activity Sporadic
METAR PASK 251416Z AUTO 06005KT 10SM CLR M05/M07 A2985 RMK AO1

More Conditions Fewer Conditions

Druk 29.85 inches
Zicht 10.0 mijlen
Wolken Helder
Gevoelstemperatuur 16 °F
Dauwpunt 19 °F
Vochtigheid 86%
Neerslag 0.00 inches
Dikte sneeuw Niet beschikbaar.
UV 0 van de 12
Pollen Niet beschikbaar.
Luchtkwaliteit Niet beschikbaar.
Flu Activity Sporadic
METAR PASK 251416Z AUTO 06005KT 10SM CLR M05/M07 A2985 RMK AO1

More Conditions Fewer Conditions

10-Day Weather Forecast

Almanac

Astronomie

Apr. 25, 2015 Opkomst Ondergang
Werkelijke tijd
Burgerlijke schemering
Nautische schemering
Astronomische schemering
Maan
Golflengte van het zichtbare licht
Daglengte
Tomorrow will be .
, % of the Moon is Illuminated

Extremen vandaag

State Highs State Lows

Community

WunderPhotos

Upload Photos

1,816,686 foto’s ge-upload!

WunderBlogs® & News

Nearby

Luchtkwaliteit

  Luchtkwaliteit LK-index Verontreinigende stof
Not available.

Dikte sneeuw

Station Depth Geometrische hoogte

Aardbevingen

Stad Distance Mag. Time & Date
Minimum magnitude displayed is 2.5.

Watertemperatuur langs de kust

Plaats Temperatuur

Stations

Nabije weerstations

Locatie station Temp. Gevoelstemperatuur Dauwpunt Vochtigheid Wind Precip. Hoogte Geactualiseerd Type